Time;durP1;ratioP1;P1;durP2;ratioP2;P2;SDS_P1;SDS_P2;PMS_P1;PMS_P2;Temp;Humidity;BMP_temperature;BMP_pressure;BME280_temperature;BME280_humidity;BME280_pressure;Samples;Min_cycle;Max_cycle;Signal;HPM_P1;HPM_P2
2022/06/19 00:00:06;;;;;;;8.57;2.38;;;;;;;22.46;64.88;95923.16;5039222;28;20204;-85
2022/06/19 00:02:32;;;;;;;8.20;2.45;;;;;;;22.33;65.84;95918.22;5039012;28;20307;-86
2022/06/19 00:05:00;;;;;;;6.50;2.63;;;;;;;22.33;65.18;95924.38;5037624;28;20480;-86
2022/06/19 00:07:27;;;;;;;6.45;2.58;;;;;;;22.03;67.19;95922.47;5038503;28;20206;-86
2022/06/19 00:09:54;;;;;;;10.27;2.63;;;;;;;22.02;67.05;95912.81;5038646;28;20207;-86
2022/06/19 00:12:21;;;;;;;11.55;2.70;;;;;;;21.89;67.08;95908.66;5040643;28;20229;-86
2022/06/19 00:14:48;;;;;;;6.82;2.58;;;;;;;21.90;66.78;95917.53;5039503;28;20210;-85
2022/06/19 00:17:15;;;;;;;13.48;3.28;;;;;;;22.00;67.05;95928.38;5038546;28;20200;-85
2022/06/19 00:19:42;;;;;;;7.93;2.75;;;;;;;21.75;66.94;95925.44;5039184;28;20212;-85
2022/06/19 00:22:10;;;;;;;6.43;2.85;;;;;;;21.91;66.61;95924.53;5040641;28;20393;-85
2022/06/19 00:24:37;;;;;;;9.85;2.92;;;;;;;21.70;67.32;95917.31;5039834;28;20673;-85
2022/06/19 00:27:04;;;;;;;4.15;2.78;;;;;;;21.68;67.37;95914.09;5042357;28;20225;-85
2022/06/19 00:29:31;;;;;;;8.05;2.70;;;;;;;21.74;67.09;95913.06;5040097;28;20209;-86
2022/06/19 00:31:57;;;;;;;8.52;3.17;;;;;;;21.75;66.97;95915.50;5040082;28;20228;-85
2022/06/19 00:34:24;;;;;;;9.60;3.10;;;;;;;21.61;68.50;95914.31;5040007;28;20209;-85
2022/06/19 00:36:51;;;;;;;7.47;2.88;;;;;;;21.49;68.64;95913.59;5041300;28;20202;-85
2022/06/19 00:39:20;;;;;;;7.63;3.05;;;;;;;21.58;69.09;95892.53;5039985;28;20686;-86
2022/06/19 00:41:47;;;;;;;9.98;3.28;;;;;;;21.31;70.05;95904.25;5042587;28;21105;-86
2022/06/19 00:44:15;;;;;;;9.35;3.53;;;;;;;21.37;69.40;95892.53;5041984;28;20216;-85
2022/06/19 00:46:48;;;;;;;6.72;3.05;;;;;;;21.29;70.33;95901.03;5042545;28;20542;-85
2022/06/19 00:49:17;;;;;;;8.43;2.85;;;;;;;21.05;71.12;95892.47;5044173;28;20995;-85
2022/06/19 00:51:44;;;;;;;13.05;3.28;;;;;;;20.88;72.15;95880.19;5042045;28;20212;-85
2022/06/19 00:54:14;;;;;;;8.98;2.92;;;;;;;20.74;72.80;95872.75;5041105;28;20213;-85
2022/06/19 00:56:43;;;;;;;5.97;2.88;;;;;;;20.38;74.65;95873.31;5039873;28;20212;-85
2022/06/19 00:59:12;;;;;;;6.60;2.92;;;;;;;20.29;74.05;95866.75;5041222;28;20202;-85
2022/06/19 01:01:39;;;;;;;7.72;2.88;;;;;;;20.31;74.39;95868.13;5040657;28;20201;-85
2022/06/19 01:04:13;;;;;;;10.77;2.95;;;;;;;20.50;73.92;95860.63;5040231;28;20200;-85
2022/06/19 01:06:39;;;;;;;5.43;2.67;;;;;;;20.29;73.64;95864.06;5039915;28;20228;-85
2022/06/19 01:09:06;;;;;;;10.15;3.67;;;;;;;20.18;73.93;95856.94;5040814;28;20208;-85
2022/06/19 01:11:37;;;;;;;6.75;3.10;;;;;;;20.42;72.66;95853.81;5041566;28;20197;-86
2022/06/19 01:14:09;;;;;;;7.38;3.00;;;;;;;20.34;73.38;95856.91;5044503;28;20216;-86
2022/06/19 01:16:35;;;;;;;6.88;3.55;;;;;;;19.97;74.21;95852.34;5044838;28;20208;-85
2022/06/19 01:19:02;;;;;;;8.35;3.35;;;;;;;20.03;73.68;95848.66;5044173;28;20479;-85
2022/06/19 01:21:35;;;;;;;9.38;3.33;;;;;;;20.33;73.33;95851.81;5045233;28;20593;-85
2022/06/19 01:24:08;;;;;;;7.68;3.20;;;;;;;20.30;72.60;95847.75;5045337;28;20601;-85
2022/06/19 01:26:41;;;;;;;6.63;3.45;;;;;;;20.01;73.02;95841.94;5044639;28;20221;-85
2022/06/19 01:29:07;;;;;;;9.30;3.58;;;;;;;19.64;74.72;95836.25;5045127;28;20233;-85
2022/06/19 01:31:37;;;;;;;7.38;4.10;;;;;;;19.57;75.33;95843.59;5045174;28;20693;-85
2022/06/19 01:34:26;;;;;;;11.63;4.53;;;;;;;19.37;76.88;95844.31;5046569;28;20212;-85
2022/06/19 01:36:56;;;;;;;11.60;4.65;;;;;;;19.49;76.99;95840.53;5047545;28;20205;-85
2022/06/19 01:39:24;;;;;;;11.95;4.53;;;;;;;19.44;76.78;95839.66;5046010;28;20701;-85
2022/06/19 01:41:52;;;;;;;7.00;4.28;;;;;;;19.45;77.12;95839.41;5043857;28;20718;-86
2022/06/19 01:44:18;;;;;;;7.85;4.05;;;;;;;19.25;77.43;95833.69;5043105;28;20212;-86
2022/06/19 01:46:54;;;;;;;7.70;3.85;;;;;;;19.54;76.55;95827.25;5044429;28;20783;-86
2022/06/19 01:49:21;;;;;;;9.40;4.63;;;;;;;19.45;76.05;95822.53;5038109;28;20643;-85
2022/06/19 01:51:47;;;;;;;8.80;3.92;;;;;;;19.26;76.73;95816.59;5043864;28;20237;-85
2022/06/19 01:54:19;;;;;;;7.18;3.00;;;;;;;19.53;75.49;95814.13;5044241;28;20619;-85
2022/06/19 01:56:46;;;;;;;8.88;3.40;;;;;;;19.29;77.23;95815.31;5044458;28;20209;-85
2022/06/19 01:59:15;;;;;;;9.38;4.00;;;;;;;19.05;77.17;95806.59;5043636;28;20360;-85
2022/06/19 02:01:43;;;;;;;12.20;4.13;;;;;;;19.05;77.71;95797.75;5043967;28;20948;-85
2022/06/19 02:04:10;;;;;;;7.80;3.70;;;;;;;18.99;77.73;95802.19;5044213;28;20569;-85
2022/06/19 02:06:41;;;;;;;10.45;3.63;;;;;;;19.00;78.20;95803.81;5044130;28;20229;-85
2022/06/19 02:09:09;;;;;;;7.43;3.97;;;;;;;18.88;79.11;95799.56;5045045;28;20212;-85
2022/06/19 02:11:36;;;;;;;9.38;3.35;;;;;;;19.00;78.32;95802.97;5045056;28;20666;-85
2022/06/19 02:14:06;;;;;;;7.63;3.35;;;;;;;18.85;78.73;95794.72;5042857;28;20592;-85
2022/06/19 02:16:36;;;;;;;9.45;3.10;;;;;;;19.06;78.71;95796.72;5044200;28;20661;-85
2022/06/19 02:19:03;;;;;;;6.43;3.33;;;;;;;18.59;79.86;95800.59;5044297;28;20237;-86
2022/06/19 02:21:39;;;;;;;7.32;3.70;;;;;;;18.62;79.56;95789.44;5044585;28;20209;-85
2022/06/19 02:24:08;;;;;;;8.02;3.30;;;;;;;18.64;79.85;95782.00;5043927;28;20572;-85
2022/06/19 02:26:37;;;;;;;15.82;3.67;;;;;;;18.75;79.65;95780.34;5043215;28;20225;-85
2022/06/19 02:29:06;;;;;;;12.30;4.05;;;;;;;18.82;79.63;95784.50;5044965;28;20600;-86
2022/06/19 02:31:37;;;;;;;9.85;3.38;;;;;;;18.84;80.11;95782.41;5045999;28;20674;-86
2022/06/19 02:34:08;;;;;;;8.02;3.50;;;;;;;18.74;79.27;95784.88;5045866;28;20765;-86
2022/06/19 02:36:41;;;;;;;8.55;3.13;;;;;;;18.85;79.58;95784.03;5046374;28;20215;-86
2022/06/19 02:39:22;;;;;;;8.43;3.10;;;;;;;19.02;79.17;95798.22;5046458;28;20212;-86
2022/06/19 02:41:55;;;;;;;4.57;2.72;;;;;;;18.89;80.42;95801.19;5045632;28;20745;-86
2022/06/19 02:44:22;;;;;;;6.15;3.00;;;;;;;18.57;80.63;95797.34;5046220;28;20212;-85
2022/06/19 02:46:50;;;;;;;7.43;3.30;;;;;;;18.80;80.24;95802.63;5047227;28;20378;-86
2022/06/19 02:49:16;;;;;;;8.32;2.72;;;;;;;18.74;80.24;95808.91;5045664;28;20236;-86
2022/06/19 02:51:42;;;;;;;10.30;3.22;;;;;;;18.35;82.03;95808.88;5046443;28;20621;-85
2022/06/19 02:54:09;;;;;;;5.03;2.80;;;;;;;18.15;82.80;95805.75;5045992;28;20205;-86
2022/06/19 02:56:35;;;;;;;10.95;3.35;;;;;;;18.32;82.27;95801.34;5046727;28;20205;-86
2022/06/19 02:59:01;;;;;;;7.70;3.17;;;;;;;18.33;82.12;95802.97;5045936;28;20216;-86
2022/06/19 03:01:28;;;;;;;13.13;3.42;;;;;;;18.49;81.79;95805.72;5046248;28;20209;-85
2022/06/19 03:03:56;;;;;;;5.18;2.60;;;;;;;18.65;80.58;95802.31;5047724;28;20631;-85
2022/06/19 03:06:22;;;;;;;6.97;3.03;;;;;;;18.50;81.21;95799.31;5046330;28;20234;-86
2022/06/19 03:08:49;;;;;;;7.68;3.40;;;;;;;18.40;82.24;95796.44;5046772;28;20209;-86
2022/06/19 03:11:15;;;;;;;4.38;2.72;;;;;;;18.40;81.60;95791.09;5047281;28;20292;-85
2022/06/19 03:13:41;;;;;;;5.85;3.15;;;;;;;18.28;80.30;95792.19;5047576;28;20823;-86
2022/06/19 03:16:08;;;;;;;5.10;2.67;;;;;;;17.97;83.00;95787.22;5046753;28;20205;-86
2022/06/19 03:18:36;;;;;;;5.90;2.60;;;;;;;17.97;83.15;95789.06;5047462;28;20232;-86
2022/06/19 03:21:04;;;;;;;9.75;2.72;;;;;;;18.28;82.06;95781.53;5046408;28;20293;-86
2022/06/19 03:23:30;;;;;;;4.45;2.55;;;;;;;18.31;81.70;95788.25;5045284;28;20240;-86
2022/06/19 03:25:57;;;;;;;9.68;2.67;;;;;;;18.38;81.02;95795.09;5046658;28;20209;-85
2022/06/19 03:28:23;;;;;;;5.35;2.75;;;;;;;18.19;80.34;95803.44;5045727;28;20587;-85
2022/06/19 03:30:51;;;;;;;5.95;3.47;;;;;;;18.20;81.78;95791.75;5045544;28;20624;-86
2022/06/19 03:33:18;;;;;;;7.18;3.33;;;;;;;18.12;82.05;95784.88;5046400;28;20228;-85
2022/06/19 03:35:44;;;;;;;7.13;2.80;;;;;;;18.10;82.02;95796.81;5044916;28;20198;-86
2022/06/19 03:38:12;;;;;;;10.20;2.83;;;;;;;18.27;81.86;95789.78;5046654;28;20218;-86
2022/06/19 03:40:39;;;;;;;7.70;3.08;;;;;;;18.08;83.53;95801.59;5045794;28;20206;-86
2022/06/19 03:43:05;;;;;;;6.80;2.92;;;;;;;17.95;84.42;95799.97;5046198;28;20225;-86
2022/06/19 03:45:32;;;;;;;9.82;2.78;;;;;;;18.24;83.63;95796.38;5044945;28;20657;-85
2022/06/19 03:47:58;;;;;;;12.25;3.55;;;;;;;18.20;83.35;95795.25;5048053;28;20432;-86
2022/06/19 03:50:24;;;;;;;7.57;2.65;;;;;;;17.97;84.46;95799.72;5048455;28;20209;-86
2022/06/19 03:52:51;;;;;;;9.45;2.83;;;;;;;18.23;83.57;95805.44;5047259;28;20229;-86
2022/06/19 03:55:19;;;;;;;8.00;2.70;;;;;;;18.39;83.31;95799.34;5047161;28;20205;-85
2022/06/19 03:57:45;;;;;;;8.65;3.15;;;;;;;18.23;83.84;95796.59;5047033;28;20205;-85
2022/06/19 04:00:14;;;;;;;12.50;3.20;;;;;;;18.59;83.19;95795.25;5046826;28;20210;-86
2022/06/19 04:02:41;;;;;;;5.25;3.15;;;;;;;18.33;84.40;95801.13;5046676;28;20229;-86
2022/06/19 04:05:08;;;;;;;4.97;2.63;;;;;;;18.40;84.42;95799.13;5047259;28;20296;-87
2022/06/19 04:07:34;;;;;;;9.57;2.88;;;;;;;18.57;83.61;95802.69;5045785;28;20232;-86
2022/06/19 04:10:02;;;;;;;8.95;2.92;;;;;;;18.82;82.90;95799.72;5046453;28;20216;-86
2022/06/19 04:12:30;;;;;;;9.50;3.20;;;;;;;18.76;84.05;95796.13;5046025;28;20315;-86
2022/06/19 04:14:56;;;;;;;7.05;2.88;;;;;;;18.46;85.25;95808.06;5046078;28;20566;-87
2022/06/19 04:17:22;;;;;;;10.77;3.15;;;;;;;18.36;86.06;95799.84;5047632;28;20203;-87
2022/06/19 04:19:49;;;;;;;10.38;2.95;;;;;;;18.66;85.62;95805.78;5047425;28;20205;-87
2022/06/19 04:22:15;;;;;;;9.98;2.70;;;;;;;18.89;84.90;95803.88;5046196;28;20263;-87
2022/06/19 04:24:42;;;;;;;13.98;2.78;;;;;;;19.07;84.06;95799.16;5044962;28;20204;-87
2022/06/19 04:27:09;;;;;;;12.98;2.97;;;;;;;19.44;81.50;95788.88;5046006;28;20597;-87
2022/06/19 04:29:37;;;;;;;6.57;3.05;;;;;;;19.95;79.36;95786.78;5044799;28;20268;-87
2022/06/19 04:32:05;;;;;;;9.35;3.15;;;;;;;19.70;82.55;95784.50;5045019;28;20229;-87
2022/06/19 04:34:31;;;;;;;9.38;2.90;;;;;;;19.82;81.69;95787.88;5045250;28;20212;-87
2022/06/19 04:36:58;;;;;;;7.60;2.90;;;;;;;19.98;81.30;95780.94;5044919;28;20574;-87
2022/06/19 04:39:24;;;;;;;7.25;3.05;;;;;;;19.53;83.47;95782.06;5045357;28;20283;-87
2022/06/19 04:41:51;;;;;;;8.95;3.20;;;;;;;19.68;83.15;95786.59;5046883;28;20228;-87
2022/06/19 04:44:18;;;;;;;14.57;3.50;;;;;;;19.75;84.27;95789.91;5045376;28;20209;-87
2022/06/19 04:46:46;;;;;;;8.55;3.50;;;;;;;20.05;81.39;95785.06;5044636;28;20846;-87
2022/06/19 04:49:14;;;;;;;7.07;3.33;;;;;;;19.99;82.38;95790.56;5043661;28;20209;-86
2022/06/19 04:51:42;;;;;;;8.52;3.78;;;;;;;20.02;80.98;95787.41;5043411;28;20267;-86
2022/06/19 04:54:09;;;;;;;9.68;4.10;;;;;;;19.93;81.52;95803.03;5043601;28;20204;-86
2022/06/19 04:56:36;;;;;;;10.73;4.28;;;;;;;20.07;81.31;95793.63;5044615;28;20205;-87
2022/06/19 04:59:03;;;;;;;10.40;4.85;;;;;;;20.11;82.06;95802.81;5045882;28;20685;-87
2022/06/19 05:01:31;;;;;;;10.32;4.50;;;;;;;20.25;82.53;95793.34;5046559;28;20284;-87
2022/06/19 05:04:01;;;;;;;10.77;4.20;;;;;;;20.46;82.88;95792.56;5046556;28;20217;-87
2022/06/19 05:06:29;;;;;;;10.35;5.07;;;;;;;20.58;80.79;95806.63;5046252;28;20725;-87
2022/06/19 05:08:56;;;;;;;12.63;4.13;;;;;;;20.66;79.68;95798.16;5045290;28;20208;-87
2022/06/19 05:11:24;;;;;;;8.63;4.00;;;;;;;20.84;78.04;95794.16;5046584;28;20197;-87
2022/06/19 05:13:50;;;;;;;9.25;4.15;;;;;;;21.04;77.46;95794.38;5045012;28;20229;-87
2022/06/19 05:16:20;;;;;;;11.07;4.35;;;;;;;21.26;77.43;95799.69;5044470;28;20205;-87
2022/06/19 05:18:47;;;;;;;18.52;3.80;;;;;;;21.19;74.57;95797.19;5045284;28;20958;-87
2022/06/19 05:21:15;;;;;;;12.38;4.20;;;;;;;21.36;74.28;95805.97;5046361;28;20201;-87
2022/06/19 05:23:44;;;;;;;7.65;3.35;;;;;;;21.56;73.70;95800.81;5044050;28;20261;-86
2022/06/19 05:26:13;;;;;;;7.93;3.80;;;;;;;21.71;72.92;95795.56;5043818;28;20209;-86
2022/06/19 05:28:39;;;;;;;8.52;3.47;;;;;;;21.96;72.32;95793.06;5042188;28;20231;-86
2022/06/19 05:31:06;;;;;;;9.90;3.70;;;;;;;22.11;71.79;95789.44;5040859;28;20243;-86
2022/06/19 05:33:34;;;;;;;12.43;3.90;;;;;;;22.26;71.21;95794.94;5038692;28;20316;-86
2022/06/19 05:36:00;;;;;;;8.90;3.38;;;;;;;22.19;72.53;95788.16;5038457;28;20209;-86
2022/06/19 05:38:29;;;;;;;10.43;3.35;;;;;;;22.51;70.23;95792.38;5041910;28;20213;-86
2022/06/19 05:40:57;;;;;;;7.68;3.42;;;;;;;22.43;71.50;95792.06;5043692;28;20224;-87
2022/06/19 05:43:26;;;;;;;12.38;3.72;;;;;;;22.52;70.20;95798.59;5042467;28;20225;-86
2022/06/19 05:45:54;;;;;;;10.07;3.50;;;;;;;22.49;69.72;95799.09;5045057;28;20220;-86
2022/06/19 05:48:21;;;;;;;12.90;4.15;;;;;;;22.32;70.94;95793.09;5045324;28;20225;-87
2022/06/19 05:50:57;;;;;;;9.00;3.55;;;;;;;22.77;68.62;95797.63;5043132;28;20213;-86
2022/06/19 05:53:24;;;;;;;12.98;3.53;;;;;;;22.83;68.57;95806.50;5043264;28;20228;-86
2022/06/19 05:55:52;;;;;;;13.15;4.00;;;;;;;22.73;69.04;95811.81;5042597;28;20205;-86
2022/06/19 05:58:18;;;;;;;10.38;3.67;;;;;;;22.61;68.95;95813.94;5045867;28;20658;-86
2022/06/19 06:00:45;;;;;;;8.65;3.42;;;;;;;22.45;69.03;95814.09;5047341;28;20547;-87
2022/06/19 06:03:13;;;;;;;13.32;3.53;;;;;;;22.46;68.77;95829.16;5047913;28;20229;-87
2022/06/19 06:05:40;;;;;;;17.00;4.07;;;;;;;22.37;69.33;95828.03;5043916;28;20201;-86
2022/06/19 06:08:06;;;;;;;9.30;3.75;;;;;;;22.67;69.12;95828.19;5045833;28;20228;-87
2022/06/19 06:10:32;;;;;;;9.85;3.50;;;;;;;22.71;68.79;95822.84;5046394;28;20211;-87
2022/06/19 06:13:00;;;;;;;18.20;4.15;;;;;;;22.59;68.85;95834.84;5044750;28;20241;-87
2022/06/19 06:15:27;;;;;;;14.13;4.30;;;;;;;22.75;68.59;95826.63;5046781;28;20566;-88
2022/06/19 06:17:53;;;;;;;13.82;3.80;;;;;;;22.93;68.27;95828.03;5045682;28;20580;-88
2022/06/19 06:20:20;;;;;;;11.05;3.70;;;;;;;23.08;67.51;95830.84;5046181;28;20294;-88
2022/06/19 06:22:47;;;;;;;9.20;3.38;;;;;;;23.11;67.56;95827.59;5046130;28;20232;-88
2022/06/19 06:25:13;;;;;;;13.00;4.13;;;;;;;23.30;67.17;95820.69;5047838;28;20206;-88
2022/06/19 06:27:40;;;;;;;12.15;3.33;;;;;;;23.36;67.33;95826.59;5046441;28;20224;-88
2022/06/19 06:30:11;;;;;;;9.60;3.70;;;;;;;23.70;65.80;95826.94;5045642;28;20201;-88
2022/06/19 06:32:37;;;;;;;17.77;3.83;;;;;;;23.79;65.73;95819.94;5045458;28;20233;-88
2022/06/19 06:35:04;;;;;;;12.40;3.67;;;;;;;23.92;66.14;95814.03;5045992;28;20394;-88
2022/06/19 06:37:31;;;;;;;10.07;3.47;;;;;;;24.19;63.49;95815.38;5044274;28;20212;-88
2022/06/19 06:39:57;;;;;;;10.43;3.85;;;;;;;24.15;64.32;95827.78;5048289;28;20212;-88
2022/06/19 06:42:24;;;;;;;9.13;3.90;;;;;;;24.38;64.52;95819.13;5051520;28;20221;-88
2022/06/19 06:44:50;;;;;;;6.97;3.72;;;;;;;24.28;63.23;95821.84;5048519;28;20205;-87
2022/06/19 06:47:18;;;;;;;8.55;3.45;;;;;;;24.44;62.44;95828.81;5047093;28;20625;-88
2022/06/19 06:49:45;;;;;;;17.45;4.05;;;;;;;24.50;63.48;95825.84;5047040;28;20212;-88
2022/06/19 06:52:11;;;;;;;12.43;4.00;;;;;;;24.89;63.55;95824.94;5045765;28;20244;-89
2022/06/19 06:54:38;;;;;;;11.35;4.10;;;;;;;25.05;62.13;95815.75;5045842;28;20205;-88
2022/06/19 06:57:06;;;;;;;12.73;3.72;;;;;;;25.36;62.82;95820.69;5046527;28;20484;-88
2022/06/19 06:59:33;;;;;;;11.65;3.92;;;;;;;25.29;62.50;95819.38;5046987;28;20231;-89
2022/06/19 07:02:00;;;;;;;5.93;3.15;;;;;;;25.59;61.19;95814.63;5045384;28;20701;-88
2022/06/19 07:04:28;;;;;;;16.60;3.55;;;;;;;25.75;62.74;95818.88;5045258;28;20228;-88
2022/06/19 07:06:55;;;;;;;15.10;3.88;;;;;;;25.66;63.46;95811.59;5047243;28;20201;-88
2022/06/19 07:09:21;;;;;;;15.68;4.50;;;;;;;25.83;60.49;95805.56;5051746;28;20205;-89
2022/06/19 07:11:49;;;;;;;12.70;3.50;;;;;;;25.77;60.55;95811.28;5049953;28;20236;-89
2022/06/19 07:14:17;;;;;;;10.57;3.70;;;;;;;26.07;59.80;95811.84;5049544;28;20201;-89
2022/06/19 07:16:44;;;;;;;14.82;3.65;;;;;;;25.95;60.17;95806.03;5046094;28;20205;-88
2022/06/19 07:19:11;;;;;;;9.40;3.38;;;;;;;26.32;60.11;95800.81;5047968;28;20726;-89
2022/06/19 07:21:39;;;;;;;13.80;3.70;;;;;;;26.53;60.89;95804.97;5047393;28;20208;-88
2022/06/19 07:24:06;;;;;;;13.35;3.47;;;;;;;26.60;59.42;95800.00;5048439;28;20220;-89
2022/06/19 07:26:33;;;;;;;15.40;3.30;;;;;;;26.78;59.12;95793.84;5047575;28;20204;-88
2022/06/19 07:29:00;;;;;;;12.20;3.53;;;;;;;26.99;57.96;95801.47;5046960;28;20231;-88
2022/06/19 07:31:26;;;;;;;15.35;3.33;;;;;;;27.02;59.43;95794.69;5043895;28;20237;-89
2022/06/19 07:33:53;;;;;;;9.43;3.70;;;;;;;27.13;58.45;95800.47;5047790;28;20475;-89
2022/06/19 07:36:21;;;;;;;9.13;3.40;;;;;;;27.45;56.02;95791.66;5046922;28;20233;-88
2022/06/19 07:38:49;;;;;;;13.75;3.53;;;;;;;27.70;55.71;95790.22;5049621;28;20212;-88
2022/06/19 07:41:16;;;;;;;11.98;3.60;;;;;;;27.83;59.17;95784.06;5049535;28;20231;-88
2022/06/19 07:43:43;;;;;;;14.85;3.70;;;;;;;28.00;56.19;95783.53;5052275;28;20240;-88
2022/06/19 07:46:10;;;;;;;10.07;3.65;;;;;;;28.08;55.37;95785.56;5049385;28;20208;-88
2022/06/19 07:51:21;;;;;;;11.45;3.25;;;;;;;27.97;56.25;95786.84;5047731;28;20231;-89
2022/06/19 07:53:49;;;;;;;13.18;3.60;;;;;;;28.43;55.66;95783.88;5049785;28;20236;-88
2022/06/19 07:56:15;;;;;;;14.45;3.60;;;;;;;28.46;55.04;95788.72;5046363;28;20212;-88
2022/06/19 07:58:42;;;;;;;9.35;3.28;;;;;;;28.51;53.93;95788.63;5048862;28;20212;-86
2022/06/19 08:01:08;;;;;;;12.75;3.50;;;;;;;28.62;56.52;95787.31;5049484;28;20214;-86
2022/06/19 08:03:35;;;;;;;12.43;3.72;;;;;;;28.51;52.58;95785.09;5048298;28;20630;-89
2022/06/19 08:06:01;;;;;;;9.93;3.50;;;;;;;28.88;53.06;95784.94;5046840;28;20205;-88
2022/06/19 08:08:32;;;;;;;11.80;4.10;;;;;;;28.96;50.95;95787.78;5048278;28;20221;-88
2022/06/19 08:11:00;;;;;;;8.43;3.15;;;;;;;28.93;50.35;95787.56;5047700;28;20201;-89
2022/06/19 08:13:29;;;;;;;13.68;3.60;;;;;;;28.83;52.74;95780.44;5047508;28;20236;-88
2022/06/19 08:15:58;;;;;;;17.50;4.10;;;;;;;29.24;52.66;95792.88;5049374;28;20551;-89
2022/06/19 08:18:25;;;;;;;17.58;4.47;;;;;;;29.18;54.32;95785.13;5049099;28;20213;-88
2022/06/19 08:20:52;;;;;;;14.20;4.32;;;;;;;29.36;52.97;95786.94;5047995;28;20216;-88
2022/06/19 08:23:19;;;;;;;17.45;4.15;;;;;;;29.55;52.74;95782.97;5047568;28;20558;-88
2022/06/19 08:25:47;;;;;;;12.40;4.13;;;;;;;29.49;50.03;95784.19;5049533;28;20247;-88
2022/06/19 08:28:16;;;;;;;15.95;3.97;;;;;;;29.92;51.87;95778.03;5047978;28;20233;-88
2022/06/19 08:30:43;;;;;;;12.63;3.95;;;;;;;29.93;51.32;95770.72;5049948;28;20717;-88
2022/06/19 08:33:11;;;;;;;17.45;3.63;;;;;;;29.79;52.24;95773.44;5049493;28;20283;-89
2022/06/19 08:35:41;;;;;;;11.27;3.65;;;;;;;30.07;55.13;95776.88;5049543;28;20213;-88
2022/06/19 08:38:12;;;;;;;11.27;3.63;;;;;;;30.13;49.66;95771.00;5048610;28;20269;-90
2022/06/19 08:41:04;;;;;;;14.52;4.18;;;;;;;30.39;48.77;95771.97;5047554;28;20984;-89
2022/06/19 08:43:54;;;;;;;11.43;4.20;;;;;;;30.59;51.17;95768.72;5048053;28;20295;-89
2022/06/19 08:46:30;;;;;;;14.95;3.67;;;;;;;30.73;50.35;95766.72;5048866;28;20684;-89
2022/06/19 08:49:10;;;;;;;18.52;4.38;;;;;;;30.77;50.07;95776.66;5049595;28;20216;-88
2022/06/19 08:51:46;;;;;;;15.68;3.90;;;;;;;30.83;48.42;95771.88;5047086;28;20216;-90
2022/06/19 08:54:24;;;;;;;15.57;3.55;;;;;;;30.93;48.27;95775.94;5050533;28;20235;-88
2022/06/19 08:57:02;;;;;;;13.60;3.88;;;;;;;31.28;47.18;95771.41;5049297;28;20196;-90
2022/06/19 08:59:42;;;;;;;16.60;3.70;;;;;;;31.35;46.52;95766.28;5044489;28;20198;-89
2022/06/19 09:02:19;;;;;;;12.88;3.65;;;;;;;31.36;46.05;95763.25;5050428;28;20224;-90
2022/06/19 09:07:54;;;;;;;15.07;3.83;;;;;;;31.29;45.69;95771.09;5047159;28;20209;-89
2022/06/19 09:10:32;;;;;;;19.45;4.13;;;;;;;31.61;47.65;95773.44;5048224;28;20200;-90
2022/06/19 09:13:16;;;;;;;13.13;3.75;;;;;;;31.41;47.19;95765.81;5049416;28;20225;-89
2022/06/19 09:15:49;;;;;;;13.68;3.83;;;;;;;31.65;47.19;95763.50;5049415;28;20205;-87
2022/06/19 09:18:24;;;;;;;20.15;4.30;;;;;;;31.90;47.59;95757.22;5048382;28;20201;-87
2022/06/19 09:20:57;;;;;;;16.63;3.70;;;;;;;32.16;47.58;95762.34;5051353;28;20200;-86
2022/06/19 09:23:53;;;;;;;14.57;3.53;;;;;;;32.13;45.80;95760.28;5049034;28;20237;-88
2022/06/19 09:26:26;;;;;;;24.15;4.38;;;;;;;32.17;44.17;95757.72;5045047;28;21034;-87
2022/06/19 09:28:58;;;;;;;20.35;4.03;;;;;;;32.31;44.62;95750.94;5049476;28;20210;-86
2022/06/19 09:31:32;;;;;;;9.45;3.63;;;;;;;32.23;44.38;95751.78;5048342;28;20216;-87
2022/06/19 09:34:05;;;;;;;11.82;4.22;;;;;;;32.41;43.14;95756.06;5050725;28;20203;-88
2022/06/19 09:36:39;;;;;;;9.73;4.05;;;;;;;32.75;44.89;95743.13;5051290;28;20201;-87
2022/06/19 09:39:11;;;;;;;9.52;3.45;;;;;;;32.58;43.31;95741.59;5049015;28;20203;-87
2022/06/19 09:41:42;;;;;;;16.50;4.32;;;;;;;32.62;44.68;95753.47;5051578;28;20200;-86
2022/06/19 09:44:16;;;;;;;11.95;3.78;;;;;;;32.82;42.84;95751.59;5052690;28;20197;-87
2022/06/19 09:46:48;;;;;;;14.27;4.28;;;;;;;32.61;43.08;95741.72;5053692;28;20211;-87
2022/06/19 09:49:21;;;;;;;15.43;3.40;;;;;;;32.73;42.41;95747.31;5052028;28;20336;-86
2022/06/19 09:51:56;;;;;;;13.95;3.65;;;;;;;32.90;44.15;95744.50;5051211;28;20733;-86
2022/06/19 09:54:29;;;;;;;12.77;4.05;;;;;;;33.28;45.71;95750.78;5049659;28;20200;-87
2022/06/19 09:57:01;;;;;;;15.95;4.65;;;;;;;33.19;41.55;95742.63;5051555;28;20208;-87
2022/06/19 09:59:33;;;;;;;15.48;4.07;;;;;;;33.21;41.54;95742.28;5053043;28;20638;-86
2022/06/19 10:02:23;;;;;;;13.35;4.53;;;;;;;33.41;41.40;95734.94;5051070;28;20225;-86
2022/06/19 10:04:57;;;;;;;9.57;4.15;;;;;;;33.63;43.83;95731.91;5049702;28;20296;-87
2022/06/19 10:07:30;;;;;;;16.83;4.30;;;;;;;34.25;42.43;95725.22;5051366;28;20196;-86
2022/06/19 10:10:00;;;;;;;10.98;4.20;;;;;;;34.18;39.29;95721.47;5050261;28;20403;-86
2022/06/19 10:12:33;;;;;;;13.32;4.35;;;;;;;33.97;39.65;95720.66;5049789;28;20225;-88
2022/06/19 10:15:05;;;;;;;11.88;4.60;;;;;;;33.78;39.21;95725.03;5051845;28;20197;-86
2022/06/19 10:17:44;;;;;;;16.38;5.38;;;;;;;33.93;39.90;95708.78;5052572;28;20197;-86
2022/06/19 10:20:15;;;;;;;12.20;5.05;;;;;;;34.31;40.84;95718.41;5049466;28;20550;-87
2022/06/19 10:22:52;;;;;;;12.27;5.63;;;;;;;33.89;38.07;95718.81;5049242;28;20307;-87
2022/06/19 10:25:35;;;;;;;9.98;4.88;;;;;;;34.08;39.05;95721.88;5051521;28;20215;-86
2022/06/19 10:28:15;;;;;;;16.88;6.15;;;;;;;34.31;39.98;95706.69;5049780;28;20685;-87
2022/06/19 10:30:52;;;;;;;12.07;5.18;;;;;;;34.25;38.85;95700.59;5049923;28;20197;-86
2022/06/19 10:33:32;;;;;;;13.50;5.32;;;;;;;34.31;37.27;95703.94;5049490;28;20225;-86
2022/06/19 10:36:03;;;;;;;12.45;5.72;;;;;;;34.51;38.20;95700.34;5049617;28;20220;-86
2022/06/19 10:38:45;;;;;;;12.43;5.95;;;;;;;34.60;37.21;95706.53;5051349;28;20213;-86
2022/06/19 10:44:09;;;;;;;13.68;5.97;;;;;;;34.88;37.19;95700.06;5047474;28;20247;-86
2022/06/19 10:46:37;;;;;;;8.02;5.57;;;;;;;34.49;37.67;95695.22;5049487;28;20208;-87
2022/06/19 10:49:15;;;;;;;14.02;6.35;;;;;;;34.88;38.17;95709.06;5049839;28;20228;-86
2022/06/19 10:51:52;;;;;;;9.93;5.10;;;;;;;34.97;36.87;95700.78;5049066;28;20674;-88
2022/06/19 10:54:39;;;;;;;14.88;5.85;;;;;;;34.92;37.86;95704.50;5048929;28;20221;-87
2022/06/19 10:57:15;;;;;;;18.42;4.85;;;;;;;34.88;37.50;95700.06;5045630;28;20427;-87
2022/06/19 10:59:42;;;;;;;12.75;5.32;;;;;;;34.66;38.37;95701.31;5046213;28;20201;-87
2022/06/19 11:05:12;;;;;;;14.32;4.57;;;;;;;34.53;38.34;95696.13;5050166;28;20278;-87
2022/06/19 11:07:40;;;;;;;11.07;5.50;;;;;;;34.40;39.35;95690.97;5050654;28;20208;-87
2022/06/19 11:10:14;;;;;;;13.65;5.70;;;;;;;34.52;41.73;95686.31;5048255;28;20233;-87
2022/06/19 11:12:44;;;;;;;11.70;6.22;;;;;;;35.16;39.52;95693.56;5048973;28;20225;-87
2022/06/19 11:15:20;;;;;;;13.23;5.68;;;;;;;34.98;38.42;95686.75;5049197;28;20691;-87
2022/06/19 11:17:46;;;;;;;13.98;5.15;;;;;;;34.69;38.50;95683.41;5051625;28;20205;-86
2022/06/19 11:20:24;;;;;;;13.50;5.95;;;;;;;35.40;39.29;95677.06;5049173;28;20204;-87
2022/06/19 11:22:58;;;;;;;15.27;5.30;;;;;;;35.42;40.50;95670.13;5047657;28;20221;-87
2022/06/19 11:25:35;;;;;;;13.88;5.85;;;;;;;35.11;36.81;95663.66;5048484;28;20616;-87
2022/06/19 11:28:06;;;;;;;12.75;5.35;;;;;;;35.53;38.17;95665.78;5043607;28;20197;-86
2022/06/19 11:30:36;;;;;;;17.20;5.13;;;;;;;35.63;36.51;95648.84;5047692;28;20229;-88
2022/06/19 11:33:09;;;;;;;15.30;5.50;;;;;;;35.90;36.42;95648.06;5046424;28;20227;-88
2022/06/19 11:35:41;;;;;;;17.15;5.85;;;;;;;36.10;37.59;95645.09;5047726;28;20208;-88
2022/06/19 11:38:08;;;;;;;12.27;5.38;;;;;;;35.73;36.39;95640.13;5051050;28;20201;-87
2022/06/19 11:40:38;;;;;;;20.40;5.40;;;;;;;35.97;38.18;95640.00;5050320;28;20614;-87
2022/06/19 11:43:05;;;;;;;14.52;5.72;;;;;;;36.27;37.80;95639.28;5049730;28;20231;-88
2022/06/19 11:45:34;;;;;;;8.45;4.18;;;;;;;35.79;33.66;95635.16;5049543;28;20585;-88
2022/06/19 11:48:06;;;;;;;15.65;5.70;;;;;;;36.33;35.49;95637.88;5050397;28;20617;-88
2022/06/19 11:50:45;;;;;;;14.65;5.50;;;;;;;36.76;34.71;95640.53;5048250;28;20228;-87